Terminal Aerodrome Forecast
Issued by NWS

Home | Current Version | Previous Version | Text Only | Print | Product List | Glossary On
Versions: 1 2 3 4 5 6 7 8 9 10 11 12 13 14 15 16 17 18 19 20 21 22 23 24 25 26 27 28 29 30 31 32 33 34 35 36
000
FTUS45 KGJT 012332
TAFDRO
TAF
KDRO 012332Z 0200/0224 26021G27KT P6SM FEW100 BKN250
      TEMPO 0200/0202 26010KT
     FM020200 29006KT P6SM SCT250
     FM021000 14010KT P6SM BKN250
     FM021700 24014G24KT P6SM FEW140 BKN250=

USA.gov is the U.S. government's official web portal to all federal, state and local government web resources and services.